Time;durP1;ratioP1;P1;durP2;ratioP2;P2;SDS_P1;SDS_P2;PMS_P1;PMS_P2;Temp;Humidity;BMP_temperature;BMP_pressure;BME280_temperature;BME280_humidity;BME280_pressure;Samples;Min_cycle;Max_cycle;Signal;HPM_P1;HPM_P2
2023/02/08 00:02:27;;;;;;;25.30;22.80;;;26.40;94.40;;;;;;1885495;75;21122;-82
2023/02/08 00:04:58;;;;;;;26.00;23.22;;;26.40;94.40;;;;;;1902853;75;21138;-83
2023/02/08 00:07:29;;;;;;;24.20;21.68;;;26.40;94.40;;;;;;1894459;75;21124;-79
2023/02/08 00:10:03;;;;;;;24.15;21.73;;;26.40;94.40;;;;;;1906181;75;21153;-80
2023/02/08 00:12:34;;;;;;;24.50;21.95;;;26.40;94.30;;;;;;1886304;75;21120;-82
2023/02/08 00:15:06;;;;;;;24.07;21.48;;;26.40;94.20;;;;;;1892236;75;21123;-83
2023/02/08 00:17:37;;;;;;;24.82;21.23;;;26.40;94.10;;;;;;1879601;75;21103;-81
2023/02/08 00:20:09;;;;;;;25.12;20.43;;;26.40;94.10;;;;;;1877460;75;21127;-82
2023/02/08 00:22:41;;;;;;;22.95;20.57;;;26.40;94.10;;;;;;1886001;75;21139;-81
2023/02/08 00:25:12;;;;;;;23.38;20.77;;;26.40;94.10;;;;;;1884074;75;21177;-81
2023/02/08 00:27:43;;;;;;;23.42;20.90;;;26.40;94.10;;;;;;1881050;75;21143;-81
2023/02/08 00:30:14;;;;;;;23.87;21.30;;;26.40;94.10;;;;;;1894403;75;21229;-80
2023/02/08 00:32:45;;;;;;;24.12;21.00;;;26.40;94.20;;;;;;1877397;75;21194;-82
2023/02/08 00:35:17;;;;;;;26.07;21.17;;;26.40;94.20;;;;;;1883779;75;21123;-81
2023/02/08 00:37:49;;;;;;;26.33;21.50;;;26.40;94.20;;;;;;1831094;77;21186;-81
2023/02/08 00:40:20;;;;;;;54.30;23.50;;;26.40;94.10;;;;;;1883144;75;21241;-82
2023/02/08 00:42:51;;;;;;;28.73;23.27;;;26.40;94.20;;;;;;1885497;75;21617;-83
2023/02/08 00:45:22;;;;;;;26.55;21.73;;;26.50;94.30;;;;;;1886809;75;21705;-82
2023/02/08 00:47:53;;;;;;;26.15;22.32;;;26.50;94.30;;;;;;1807903;79;21183;-81
2023/02/08 00:50:24;;;;;;;28.27;22.80;;;26.50;94.20;;;;;;1846486;77;21139;-70
2023/02/08 00:52:56;;;;;;;29.02;24.00;;;26.50;94.20;;;;;;1893417;75;21143;-71
2023/02/08 00:55:27;;;;;;;25.82;22.20;;;26.60;94.20;;;;;;1880693;75;21134;-71
2023/02/08 00:57:58;;;;;;;25.57;22.15;;;26.60;94.20;;;;;;1843728;77;21179;-71
2023/02/08 01:00:30;;;;;;;28.15;22.22;;;26.70;94.10;;;;;;1884186;75;21229;-72
2023/02/08 01:03:02;;;;;;;27.20;23.07;;;26.70;94.00;;;;;;1890132;75;21247;-72
2023/02/08 01:05:34;;;;;;;25.37;22.67;;;26.70;93.90;;;;;;1879694;75;21083;-73
2023/02/08 01:08:05;;;;;;;28.73;24.65;;;26.80;94.00;;;;;;1834893;77;21150;-73
2023/02/08 01:10:37;;;;;;;29.20;23.77;;;26.90;94.00;;;;;;1892393;75;21136;-72
2023/02/08 01:13:10;;;;;;;29.87;25.60;;;26.90;93.90;;;;;;1884497;75;21288;-73
2023/02/08 01:15:41;;;;;;;26.48;23.73;;;26.90;93.90;;;;;;1900690;75;21170;-71
2023/02/08 01:18:15;;;;;;;27.75;23.75;;;26.90;93.80;;;;;;1880760;75;21258;-72
2023/02/08 01:20:47;;;;;;;27.70;23.70;;;27.00;93.80;;;;;;1909143;75;21146;-73
2023/02/08 01:23:18;;;;;;;32.40;22.85;;;27.00;93.80;;;;;;1894272;75;21220;-72
2023/02/08 01:25:49;;;;;;;26.27;21.87;;;27.10;93.80;;;;;;1882538;75;21056;-73
2023/02/08 01:28:20;;;;;;;30.55;24.23;;;27.10;93.70;;;;;;1905569;74;21159;-71
2023/02/08 01:30:51;;;;;;;24.75;20.57;;;27.20;93.70;;;;;;1896691;75;21116;-72
2023/02/08 01:33:22;;;;;;;24.20;21.40;;;27.20;93.70;;;;;;1909073;75;21170;-72
2023/02/08 01:35:54;;;;;;;31.85;21.25;;;27.20;93.50;;;;;;1893970;75;21781;-71
2023/02/08 01:38:26;;;;;;;22.95;20.27;;;27.30;93.60;;;;;;1901691;75;21110;-72
2023/02/08 01:40:57;;;;;;;24.47;19.75;;;27.30;93.60;;;;;;1886305;75;21171;-72
2023/02/08 01:43:48;;;;;;;32.28;20.60;;;27.30;93.30;;;;;;1898044;75;21297;-72
2023/02/08 01:46:19;;;;;;;21.37;19.12;;;27.40;93.80;;;;;;1884095;74;21099;-71
2023/02/08 01:49:11;;;;;;;37.60;21.25;;;27.50;93.30;;;;;;1896631;74;21138;-71
2023/02/08 01:52:07;;;;;;;24.25;19.37;;;27.50;93.20;;;;;;1854687;75;21146;-72
2023/02/08 01:54:43;;;;;;;22.62;18.62;;;27.60;93.10;;;;;;1854452;75;21253;-73
2023/02/08 01:57:17;;;;;;;36.68;20.75;;;27.50;93.10;;;;;;1862797;75;21110;-72
2023/02/08 01:59:51;;;;;;;23.35;19.02;;;27.60;93.20;;;;;;1858531;75;21130;-73
2023/02/08 02:02:26;;;;;;;24.25;19.48;;;27.60;93.10;;;;;;1858311;75;21051;-71
2023/02/08 02:04:57;;;;;;;29.70;18.98;;;27.60;93.00;;;;;;1862883;75;21244;-72
2023/02/08 02:07:31;;;;;;;25.20;18.17;;;27.60;93.00;;;;;;1848084;75;21197;-71
2023/02/08 02:10:06;;;;;;;31.17;20.52;;;27.60;92.80;;;;;;1860638;75;21126;-71
2023/02/08 02:12:39;;;;;;;31.23;22.48;;;27.60;92.70;;;;;;1859126;75;21654;-73
2023/02/08 02:15:11;;;;;;;28.23;19.48;;;27.70;92.70;;;;;;1848763;75;21339;-72
2023/02/08 02:17:48;;;;;;;25.80;18.35;;;27.70;92.50;;;;;;1851638;75;21162;-72
2023/02/08 02:20:33;;;;;;;22.27;17.92;;;27.70;92.20;;;;;;1848035;75;21669;-72
2023/02/08 02:23:42;;;;;;;21.35;17.48;;;27.70;92.20;;;;;;1848441;75;21130;-72
2023/02/08 02:26:22;;;;;;;20.05;17.98;;;27.80;91.70;;;;;;1853730;76;21704;-72
2023/02/08 02:29:30;;;;;;;20.80;17.77;;;27.80;91.50;;;;;;1827195;76;21583;-71
2023/02/08 02:32:06;;;;;;;21.95;17.95;;;28.00;91.40;;;;;;1854498;75;21547;-72
2023/02/08 02:34:42;;;;;;;27.50;18.33;;;28.10;91.10;;;;;;1860562;75;21135;-72
2023/02/08 02:37:18;;;;;;;23.07;18.15;;;28.10;91.00;;;;;;1858812;75;21510;-72
2023/02/08 02:39:56;;;;;;;22.35;18.32;;;28.20;90.70;;;;;;1811936;77;21195;-72
2023/02/08 02:45:42;;;;;;;24.15;17.23;;;28.40;90.50;;;;;;1780703;78;21947;-71
2023/02/08 02:48:19;;;;;;;21.20;17.73;;;28.50;90.10;;;;;;1785044;78;21233;-72
2023/02/08 02:51:10;;;;;;;21.00;17.00;;;28.60;89.70;;;;;;1781930;77;21175;-75
2023/02/08 02:54:16;;;;;;;21.05;17.30;;;28.70;89.60;;;;;;1780680;79;21557;-75
2023/02/08 02:56:49;;;;;;;21.70;16.17;;;28.70;88.90;;;;;;1781959;80;21119;-72
2023/02/08 02:59:21;;;;;;;18.17;16.17;;;28.80;89.20;;;;;;1780150;79;21126;-71
2023/02/08 03:01:55;;;;;;;30.15;16.07;;;28.90;88.60;;;;;;1779235;80;21183;-71
2023/02/08 03:04:37;;;;;;;29.48;17.98;;;28.90;89.10;;;;;;1778921;79;21108;-72
2023/02/08 03:07:23;;;;;;;19.80;16.40;;;29.00;88.80;;;;;;1777205;79;22046;-73
2023/02/08 03:10:13;;;;;;;22.37;17.40;;;29.10;88.20;;;;;;1817248;77;21244;-72
2023/02/08 03:13:04;;;;;;;21.48;17.20;;;29.20;87.60;;;;;;1781878;79;21155;-72
2023/02/08 03:15:49;;;;;;;24.00;18.82;;;29.30;87.30;;;;;;1858853;75;21202;-73
2023/02/08 03:18:48;;;;;;;34.92;20.90;;;29.40;87.30;;;;;;1858146;75;21142;-73
2023/02/08 03:21:42;;;;;;;25.10;21.27;;;29.40;87.40;;;;;;1784412;79;21608;-73
2023/02/08 03:24:25;;;;;;;26.85;21.82;;;29.50;88.10;;;;;;1848937;75;21148;-72
2023/02/08 03:27:13;;;;;;;26.55;22.82;;;29.60;87.20;;;;;;1784397;79;21711;-70
2023/02/08 03:30:04;;;;;;;25.35;21.87;;;29.70;87.20;;;;;;1830102;75;21240;-72
2023/02/08 03:32:44;;;;;;;24.57;21.90;;;29.70;87.00;;;;;;1854365;75;21644;-72
2023/02/08 03:35:26;;;;;;;26.82;21.62;;;29.70;86.70;;;;;;1860957;75;21158;-72
2023/02/08 03:38:09;;;;;;;24.75;20.77;;;29.80;86.80;;;;;;1854007;75;21166;-74
2023/02/08 03:40:45;;;;;;;23.42;20.40;;;29.90;87.50;;;;;;1861465;75;21118;-72
2023/02/08 03:43:22;;;;;;;27.00;20.45;;;30.00;86.30;;;;;;1861097;75;21166;-72
2023/02/08 03:45:56;;;;;;;;;;;30.10;86.20;;;;;;1858965;75;21182;-72
2023/02/08 03:48:28;;;;;;;25.05;21.00;;;30.30;86.40;;;;;;1855851;75;20476;-72
2023/02/08 03:51:02;;;;;;;24.05;20.82;;;30.40;85.00;;;;;;1858847;75;21748;-72
2023/02/08 03:53:37;;;;;;;28.05;22.15;;;30.40;85.30;;;;;;1864127;75;21564;-73
2023/02/08 03:56:18;;;;;;;26.20;21.85;;;30.50;83.80;;;;;;1851840;75;21684;-72
2023/02/08 03:58:52;;;;;;;31.57;21.65;;;30.70;82.90;;;;;;1859439;75;21785;-73
2023/02/08 04:01:29;;;;;;;23.02;20.72;;;30.70;82.30;;;;;;1857447;75;21646;-73
2023/02/08 04:04:01;;;;;;;24.30;21.30;;;30.70;81.80;;;;;;1781925;79;21155;-71
2023/02/08 04:06:33;;;;;;;24.10;20.75;;;30.80;81.10;;;;;;1863737;75;21162;-73
2023/02/08 04:09:05;;;;;;;23.07;20.57;;;30.70;80.60;;;;;;1829658;76;21205;-72
2023/02/08 04:11:43;;;;;;;23.05;20.37;;;30.80;80.40;;;;;;1856974;75;21178;-74
2023/02/08 04:14:15;;;;;;;21.45;19.27;;;30.90;79.20;;;;;;1819911;77;21205;-73
2023/02/08 04:16:46;;;;;;;24.47;19.27;;;31.00;79.20;;;;;;1837574;75;21182;-73
2023/02/08 04:19:17;;;;;;;22.62;18.57;;;31.10;77.20;;;;;;1855726;75;21233;-72
2023/02/08 04:24:30;;;;;;;27.10;18.70;;;31.20;77.70;;;;;;1871544;73;21652;-80
2023/02/08 04:27:02;;;;;;;33.70;27.52;;;31.20;77.80;;;;;;1870617;75;21675;-81
2023/02/08 04:29:40;;;;;;;24.77;21.00;;;31.30;77.70;;;;;;1870342;75;21098;-82
2023/02/08 04:32:30;;;;;;;30.43;21.20;;;31.30;76.60;;;;;;1838668;77;21145;-82
2023/02/08 04:35:04;;;;;;;24.95;21.75;;;31.40;77.00;;;;;;1826995;77;21642;-82
2023/02/08 04:37:35;;;;;;;22.05;19.65;;;31.50;76.10;;;;;;1826934;77;21497;-83
2023/02/08 04:40:07;;;;;;;29.10;22.27;;;31.60;75.80;;;;;;1829254;78;21185;-82
2023/02/08 04:42:39;;;;;;;23.55;18.00;;;31.70;75.70;;;;;;1827538;77;21153;-83
2023/02/08 04:45:10;;;;;;;27.17;19.37;;;31.80;74.00;;;;;;1834101;77;21821;-80
2023/02/08 05:13:23;;;;;;;21.70;17.60;;;32.60;71.40;;;;;;1780083;77;21531;-80
2023/02/08 05:15:54;;;;;;;20.72;17.32;;;32.70;69.10;;;;;;1771235;79;21761;-82
2023/02/08 05:18:25;;;;;;;20.25;17.95;;;32.80;69.40;;;;;;1799816;78;21203;-82
2023/02/08 05:20:59;;;;;;;17.77;16.00;;;33.10;94.50;;;;;;1769208;79;21243;-80
2023/02/08 05:23:33;;;;;;;19.17;15.80;;;33.10;74.30;;;;;;1795221;78;21286;-86
2023/02/08 05:26:09;;;;;;;17.62;15.80;;;33.00;68.80;;;;;;1793932;78;21195;-83
2023/02/08 05:28:40;;;;;;;18.17;16.23;;;32.80;68.90;;;;;;1802912;78;21207;-81
2023/02/08 05:31:14;;;;;;;20.05;16.40;;;32.80;68.50;;;;;;1794658;79;21326;-80
2023/02/08 05:33:48;;;;;;;16.10;14.33;;;32.80;68.20;;;;;;1790914;78;21700;-80
2023/02/08 05:36:22;;;;;;;16.73;14.95;;;32.90;66.40;;;;;;1820419;77;21241;-82
2023/02/08 05:38:59;;;;;;;19.80;15.95;;;32.80;66.80;;;;;;1825880;77;21205;-83
2023/02/08 05:41:31;;;;;;;19.85;15.93;;;32.70;67.40;;;;;;1810515;77;21115;-82
2023/02/08 05:44:03;;;;;;;24.87;18.15;;;32.60;67.40;;;;;;1835038;77;21081;-81
2023/02/08 05:46:34;;;;;;;20.15;15.93;;;32.80;68.80;;;;;;1827295;77;21181;-84
2023/02/08 05:49:07;;;;;;;20.15;15.50;;;32.90;67.30;;;;;;1818568;77;21197;-85
2023/02/08 05:51:39;;;;;;;17.02;14.70;;;33.00;70.30;;;;;;1824166;76;21120;-84
2023/02/08 05:54:13;;;;;;;16.62;14.75;;;33.10;68.00;;;;;;1860254;76;21175;-84
2023/02/08 05:56:46;;;;;;;19.57;15.45;;;33.10;65.70;;;;;;1887363;75;21164;-84
2023/02/08 05:59:18;;;;;;;18.65;15.53;;;33.20;66.10;;;;;;1881770;76;21146;-82
2023/02/08 06:01:49;;;;;;;20.27;17.40;;;33.20;64.40;;;;;;1887748;75;21167;-84
2023/02/08 06:04:21;;;;;;;18.55;13.43;;;33.40;64.20;;;;;;1882005;75;21167;-84
2023/02/08 06:06:52;;;;;;;18.87;13.58;;;33.60;61.40;;;;;;1887783;75;21261;-83
2023/02/08 06:09:23;;;;;;;18.57;14.68;;;33.60;60.20;;;;;;1902531;75;21133;-82
2023/02/08 06:11:55;;;;;;;17.17;13.95;;;33.80;62.30;;;;;;1914870;73;21113;-78
2023/02/08 06:14:27;;;;;;;14.73;13.30;;;33.90;60.70;;;;;;1849929;77;21065;-80
2023/02/08 06:16:58;;;;;;;17.00;14.30;;;33.90;61.00;;;;;;1810565;77;21899;-83
2023/02/08 06:19:29;;;;;;;16.20;13.15;;;34.00;62.60;;;;;;1843499;77;21085;-82
2023/02/08 06:22:01;;;;;;;14.23;12.45;;;33.90;61.60;;;;;;1842230;77;21544;-84
2023/02/08 06:24:32;;;;;;;16.07;13.30;;;33.80;58.80;;;;;;1807106;78;21143;-84
2023/02/08 06:27:03;;;;;;;16.20;14.38;;;33.70;60.60;;;;;;1808436;78;21646;-83
2023/02/08 06:29:36;;;;;;;21.12;17.42;;;33.70;65.90;;;;;;1798232;78;21164;-83
2023/02/08 06:32:11;;;;;;;20.57;17.05;;;33.60;70.30;;;;;;1805792;78;21174;-84
2023/02/08 06:34:50;;;;;;;24.63;17.05;;;33.50;71.40;;;;;;1826679;77;21158;-83
2023/02/08 06:37:17;;;;;;;19.05;16.82;;;33.40;72.60;;;;;;1832120;77;21197;-82
2023/02/08 06:39:48;;;;;;;24.98;18.60;;;33.40;73.20;;;;;;1833400;77;21124;-84
2023/02/08 06:42:21;;;;;;;18.73;16.65;;;33.30;72.60;;;;;;1828181;77;21208;-83
2023/02/08 06:44:54;;;;;;;18.90;16.90;;;33.20;72.50;;;;;;1838609;77;21652;-81
2023/02/08 06:47:26;;;;;;;20.97;16.97;;;33.10;72.80;;;;;;1837761;77;21628;-82
2023/02/08 06:49:56;;;;;;;18.73;16.85;;;33.10;72.50;;;;;;1828447;77;21554;-84
2023/02/08 06:52:27;;;;;;;19.85;16.95;;;33.00;72.30;;;;;;1795650;78;21160;-81
2023/02/08 06:54:59;;;;;;;18.37;16.48;;;33.10;72.00;;;;;;1849658;76;21781;-84
2023/02/08 06:57:30;;;;;;;19.67;17.45;;;33.20;72.20;;;;;;1813347;77;21083;-82
2023/02/08 07:00:02;;;;;;;20.02;17.20;;;33.20;72.10;;;;;;1806295;78;21178;-82
2023/02/08 07:02:33;;;;;;;21.50;16.20;;;33.30;71.80;;;;;;1805814;78;21578;-84
2023/02/08 07:05:08;;;;;;;24.18;19.32;;;33.40;71.60;;;;;;1793465;78;21072;-84
2023/02/08 07:07:40;;;;;;;26.35;17.12;;;33.40;71.60;;;;;;1800363;78;21174;-81
2023/02/08 07:10:19;;;;;;;20.97;16.80;;;33.60;72.10;;;;;;1798717;78;21206;-78
2023/02/08 07:12:47;;;;;;;22.27;18.20;;;33.60;72.10;;;;;;1759835;80;21234;-84
2023/02/08 07:15:18;;;;;;;29.80;18.90;;;33.60;71.80;;;;;;1808052;77;21587;-80
2023/02/08 07:17:50;;;;;;;20.08;18.02;;;33.60;72.00;;;;;;1778804;78;21243;-84
2023/02/08 07:20:22;;;;;;;19.23;16.48;;;33.70;71.70;;;;;;1823160;77;21158;-83
2023/02/08 07:22:55;;;;;;;21.02;16.55;;;33.70;72.00;;;;;;1815284;78;21192;-82
2023/02/08 07:25:28;;;;;;;18.40;16.30;;;33.60;70.80;;;;;;1841363;77;21637;-81
2023/02/08 07:27:59;;;;;;;22.58;17.62;;;33.70;70.80;;;;;;1841985;77;21137;-79
2023/02/08 07:30:31;;;;;;;19.12;17.12;;;33.70;72.40;;;;;;1827499;77;21190;-81
2023/02/08 07:33:02;;;;;;;19.45;17.05;;;33.70;70.80;;;;;;1837868;77;21858;-82
2023/02/08 07:35:33;;;;;;;20.75;15.40;;;33.60;70.70;;;;;;1817519;77;21092;-83
2023/02/08 07:38:03;;;;;;;22.58;16.50;;;33.70;70.40;;;;;;1842182;77;21204;-82
2023/02/08 07:40:34;;;;;;;18.92;15.80;;;33.70;69.50;;;;;;1806004;77;21225;-84
2023/02/08 07:43:07;;;;;;;17.92;16.15;;;33.50;68.80;;;;;;1822087;77;21175;-83
2023/02/08 07:45:39;;;;;;;20.75;17.45;;;33.50;69.20;;;;;;1853863;76;21096;-80
2023/02/08 07:48:10;;;;;;;20.60;17.77;;;33.50;69.10;;;;;;1839469;76;21116;-82
2023/02/08 07:50:45;;;;;;;17.35;15.48;;;33.50;68.30;;;;;;1786783;78;21120;-82
2023/02/08 07:53:17;;;;;;;17.87;15.25;;;33.50;68.80;;;;;;1800372;78;21703;-84
2023/02/08 07:55:49;;;;;;;26.48;17.10;;;33.50;68.50;;;;;;1865376;76;21132;-83
2023/02/08 07:58:20;;;;;;;22.45;18.10;;;33.50;69.50;;;;;;1859493;76;21103;-83
2023/02/08 08:00:51;;;;;;;24.23;17.02;;;33.50;69.50;;;;;;1852987;76;21241;-82
2023/02/08 08:03:22;;;;;;;24.05;16.00;;;33.50;69.50;;;;;;1849831;76;21061;-81
2023/02/08 08:05:53;;;;;;;16.90;15.18;;;33.50;70.10;;;;;;1866117;76;21142;-81
2023/02/08 08:08:26;;;;;;;16.62;14.83;;;33.50;69.80;;;;;;1860610;76;21562;-84
2023/02/08 08:10:57;;;;;;;17.42;15.55;;;33.50;69.90;;;;;;1870141;76;21143;-78
2023/02/08 08:13:28;;;;;;;18.60;16.07;;;33.40;70.10;;;;;;1854107;76;21141;-80
2023/02/08 08:15:59;;;;;;;18.20;15.15;;;33.30;71.00;;;;;;1867580;74;21077;-81
2023/02/08 08:18:31;;;;;;;18.30;16.02;;;33.20;71.80;;;;;;1860398;75;21717;-81
2023/02/08 08:21:03;;;;;;;19.85;16.95;;;33.20;71.00;;;;;;1875893;76;21533;-82
2023/02/08 08:23:35;;;;;;;19.23;15.90;;;33.10;70.50;;;;;;1856054;75;21212;-85
2023/02/08 08:26:12;;;;;;;18.75;16.52;;;33.10;70.80;;;;;;1857391;76;21080;-82
2023/02/08 08:28:45;;;;;;;17.67;15.88;;;33.10;71.60;;;;;;1854144;76;21145;-83
2023/02/08 08:31:21;;;;;;;17.57;15.50;;;33.00;71.50;;;;;;1854946;76;21221;-82
2023/02/08 08:33:58;;;;;;;17.65;15.78;;;33.00;71.80;;;;;;1859417;76;21084;-83
2023/02/08 08:36:27;;;;;;;16.65;15.03;;;33.00;70.60;;;;;;1857639;77;21091;-83
2023/02/08 08:38:58;;;;;;;20.20;14.85;;;33.00;70.40;;;;;;1860801;76;21555;-84
2023/02/08 08:41:30;;;;;;;22.17;15.75;;;33.00;70.20;;;;;;1874800;76;21091;-82
2023/02/08 08:44:01;;;;;;;18.70;15.88;;;33.00;70.20;;;;;;1858373;76;21100;-82
2023/02/08 08:46:33;;;;;;;18.48;15.15;;;33.10;69.60;;;;;;1870667;75;21166;-84
2023/02/08 08:49:04;;;;;;;17.73;15.83;;;33.00;69.20;;;;;;1855675;76;21057;-80
2023/02/08 08:51:41;;;;;;;18.70;16.17;;;33.00;69.40;;;;;;1868188;75;21136;-82
2023/02/08 08:54:31;;;;;;;20.65;17.40;;;33.00;70.10;;;;;;1861480;75;21150;-84
2023/02/08 08:57:02;;;;;;;19.62;16.93;;;33.00;69.80;;;;;;1869459;76;21115;-84
2023/02/08 08:59:34;;;;;;;19.00;15.25;;;33.10;70.00;;;;;;1854954;76;21126;-85
2023/02/08 09:02:07;;;;;;;19.90;16.45;;;33.10;70.20;;;;;;1852278;75;21628;-84
2023/02/08 09:04:39;;;;;;;21.87;17.73;;;33.00;69.90;;;;;;1856949;76;21087;-82
2023/02/08 09:07:11;;;;;;;18.77;15.65;;;33.00;70.00;;;;;;1880910;75;21056;-82
2023/02/08 09:09:46;;;;;;;20.62;17.17;;;32.90;70.20;;;;;;1844865;76;21507;-83
2023/02/08 09:12:17;;;;;;;18.62;16.32;;;32.80;70.30;;;;;;1864194;76;21597;-82
2023/02/08 09:14:48;;;;;;;17.90;16.10;;;32.70;70.70;;;;;;1853397;76;21103;-80
2023/02/08 09:17:25;;;;;;;18.00;16.00;;;32.70;71.50;;;;;;1852466;76;21169;-81
2023/02/08 09:19:56;;;;;;;17.40;15.35;;;32.70;70.60;;;;;;1855164;76;21204;-83
2023/02/08 09:22:27;;;;;;;16.57;14.83;;;32.70;70.10;;;;;;1851366;75;21170;-81
2023/02/08 09:25:01;;;;;;;18.23;16.35;;;32.70;70.30;;;;;;1869158;76;21210;-82
2023/02/08 09:27:32;;;;;;;20.90;16.35;;;32.70;70.40;;;;;;1847461;76;21103;-81
2023/02/08 09:30:02;;;;;;;20.52;16.32;;;32.60;70.10;;;;;;1853125;76;21147;-81
2023/02/08 09:32:35;;;;;;;18.15;16.15;;;32.60;70.20;;;;;;1856717;75;21154;-82
2023/02/08 09:35:07;;;;;;;18.75;16.75;;;32.60;70.20;;;;;;1866085;76;21095;-82
2023/02/08 09:37:38;;;;;;;19.65;17.55;;;32.60;70.20;;;;;;1849237;76;21087;-82
2023/02/08 09:40:15;;;;;;;17.77;15.98;;;32.60;70.00;;;;;;1852906;76;21076;-85
2023/02/08 09:42:48;;;;;;;20.37;16.67;;;32.60;70.50;;;;;;1839626;76;21193;-82
2023/02/08 09:45:35;;;;;;;19.35;16.27;;;32.60;71.10;;;;;;1850882;76;21091;-84
2023/02/08 09:48:24;;;;;;;21.82;17.15;;;32.50;70.90;;;;;;1848365;76;21216;-84
2023/02/08 09:50:57;;;;;;;18.42;16.40;;;32.50;71.50;;;;;;1854543;76;21104;-82
2023/02/08 09:53:38;;;;;;;19.15;16.55;;;32.40;71.00;;;;;;1853324;76;21104;-82
2023/02/08 09:56:12;;;;;;;21.00;16.57;;;32.50;71.50;;;;;;1860755;76;21795;-80
2023/02/08 09:58:45;;;;;;;18.92;16.50;;;32.40;71.40;;;;;;1823742;77;21140;-84
2023/02/08 10:01:36;;;;;;;18.42;16.48;;;32.40;72.10;;;;;;1826249;77;21178;-83
2023/02/08 10:04:22;;;;;;;18.23;16.35;;;32.30;71.50;;;;;;1827485;77;21199;-82
2023/02/08 10:06:55;;;;;;;20.92;16.77;;;32.30;71.60;;;;;;1822826;77;21130;-81
2023/02/08 10:09:28;;;;;;;22.20;16.48;;;32.20;71.70;;;;;;1787027;78;21182;-84
2023/02/08 10:12:29;;;;;;;19.60;17.50;;;32.10;71.40;;;;;;1791649;78;21202;-83
2023/02/08 10:15:15;;;;;;;19.62;16.37;;;32.10;71.50;;;;;;1853301;77;21652;-85
2023/02/08 10:18:02;;;;;;;19.40;17.42;;;32.10;72.00;;;;;;1779811;78;21096;-84
2023/02/08 10:20:55;;;;;;;21.12;17.67;;;32.00;72.30;;;;;;1837611;77;21136;-86
2023/02/08 10:23:32;;;;;;;20.08;17.10;;;32.00;72.70;;;;;;1823098;77;21664;-84
2023/02/08 10:26:24;;;;;;;19.50;17.43;;;31.90;73.00;;;;;;1821794;77;21085;-86
2023/02/08 10:29:07;;;;;;;22.73;17.17;;;31.90;73.30;;;;;;1830633;77;21271;-81
2023/02/08 10:32:04;;;;;;;18.55;16.62;;;31.90;74.40;;;;;;1834897;77;21567;-84
2023/02/08 10:34:54;;;;;;;20.57;17.20;;;31.80;73.80;;;;;;1816962;77;21230;-85
2023/02/08 10:37:33;;;;;;;24.80;17.55;;;31.80;74.10;;;;;;1829877;77;21148;-83
2023/02/08 10:40:31;;;;;;;19.50;16.97;;;31.80;74.30;;;;;;1846520;77;21169;-83
2023/02/08 10:43:19;;;;;;;20.27;18.20;;;31.70;74.50;;;;;;1827937;77;21145;-89
2023/02/08 10:46:18;;;;;;;23.20;17.98;;;31.70;74.80;;;;;;1814303;79;21176;-84
2023/02/08 10:48:53;;;;;;;23.52;18.80;;;31.60;74.80;;;;;;1818224;77;21092;-85
2023/02/08 10:51:28;;;;;;;21.73;19.32;;;31.60;75.00;;;;;;1826135;77;21133;-86
2023/02/08 10:53:58;;;;;;;23.67;18.40;;;31.60;75.30;;;;;;1830397;77;21111;-87
2023/02/08 10:56:48;;;;;;;21.42;19.02;;;31.60;75.40;;;;;;1821226;77;21191;-84
2023/02/08 10:59:22;;;;;;;22.22;18.32;;;31.50;75.60;;;;;;1820529;77;21116;-86
2023/02/08 11:01:54;;;;;;;20.72;17.70;;;31.50;76.00;;;;;;1817020;77;21188;-83
2023/02/08 11:04:25;;;;;;;23.57;18.12;;;31.50;76.20;;;;;;1800902;77;21163;-90
2023/02/08 11:06:56;;;;;;;23.60;18.15;;;31.40;76.20;;;;;;1833855;77;21245;-87
2023/02/08 11:09:29;;;;;;;23.70;18.48;;;31.50;76.50;;;;;;1831839;77;21164;-87
2023/02/08 11:12:02;;;;;;;24.50;19.05;;;31.40;76.40;;;;;;1834027;77;21148;-87
2023/02/08 11:14:38;;;;;;;24.92;19.02;;;31.40;76.60;;;;;;1817841;78;21229;-89
2023/02/08 11:17:12;;;;;;;26.40;18.60;;;31.40;76.60;;;;;;1828128;77;21128;-87
2023/02/08 11:19:45;;;;;;;23.47;18.92;;;31.40;76.80;;;;;;1838024;76;21104;-88
2023/02/08 11:22:21;;;;;;;23.30;19.23;;;31.30;76.80;;;;;;1827388;77;21167;-88
2023/02/08 11:25:04;;;;;;;24.97;20.40;;;31.30;77.00;;;;;;1801685;79;21131;-88
2023/02/08 11:27:43;;;;;;;22.67;19.70;;;31.30;77.30;;;;;;1801816;80;21064;-87
2023/02/08 11:30:22;;;;;;;21.87;19.05;;;31.30;77.50;;;;;;1799484;80;21177;-87
2023/02/08 11:33:12;;;;;;;24.10;20.45;;;31.30;77.80;;;;;;1800150;80;21114;-87
2023/02/08 11:35:43;;;;;;;21.68;19.12;;;31.30;77.90;;;;;;1830344;78;21107;-87
2023/02/08 11:38:18;;;;;;;25.35;20.40;;;31.30;77.80;;;;;;1830223;78;21126;-85
2023/02/08 11:40:49;;;;;;;24.40;20.17;;;31.30;78.00;;;;;;1830192;78;21679;-86
2023/02/08 11:43:26;;;;;;;27.73;19.92;;;31.20;77.90;;;;;;1830773;78;21122;-85
2023/02/08 11:45:59;;;;;;;22.77;20.35;;;31.20;77.90;;;;;;1831353;76;21181;-87
2023/02/08 11:48:41;;;;;;;24.00;21.27;;;31.20;78.00;;;;;;1831503;78;21115;-88
2023/02/08 11:51:14;;;;;;;25.80;21.20;;;31.10;78.10;;;;;;1830477;78;21442;-87
2023/02/08 11:53:49;;;;;;;28.17;20.85;;;31.10;77.80;;;;;;1830148;78;21157;-85
2023/02/08 11:56:28;;;;;;;24.77;20.05;;;31.10;77.90;;;;;;1829989;78;21146;-86
2023/02/08 11:59:07;;;;;;;23.57;19.65;;;31.10;77.90;;;;;;1829921;77;21596;-85
2023/02/08 12:01:42;;;;;;;24.70;21.17;;;31.10;77.90;;;;;;1828257;78;21126;-86
2023/02/08 12:04:15;;;;;;;22.07;19.67;;;31.10;77.90;;;;;;1824853;77;21126;-87
2023/02/08 12:06:51;;;;;;;23.90;20.05;;;31.10;78.00;;;;;;1821538;78;21117;-86
2023/02/08 12:09:36;;;;;;;32.60;21.57;;;31.00;77.90;;;;;;1814081;79;21111;-86
2023/02/08 12:12:11;;;;;;;23.50;20.48;;;31.10;78.00;;;;;;1821649;79;21550;-86
2023/02/08 12:15:07;;;;;;;23.80;21.20;;;31.00;77.90;;;;;;1809809;79;21113;-87
2023/02/08 12:17:46;;;;;;;23.45;19.92;;;31.00;77.90;;;;;;1808618;77;21056;-87
2023/02/08 12:20:24;;;;;;;23.95;21.37;;;31.00;78.10;;;;;;1824263;77;21097;-87
2023/02/08 12:22:57;;;;;;;25.12;20.77;;;31.00;78.00;;;;;;1814635;77;21102;-87
2023/02/08 12:25:47;;;;;;;27.32;21.90;;;30.90;78.00;;;;;;1816080;79;21224;-88
2023/02/08 12:28:23;;;;;;;26.25;23.18;;;30.90;78.00;;;;;;1815926;79;21109;-88
2023/02/08 12:31:12;;;;;;;30.32;21.60;;;30.90;78.10;;;;;;1815215;78;21164;-88
2023/02/08 12:33:45;;;;;;;24.12;21.52;;;30.90;78.40;;;;;;1815283;79;21121;-88
2023/02/08 12:36:19;;;;;;;26.95;20.40;;;30.90;78.30;;;;;;1815694;77;21084;-88
2023/02/08 12:41:56;;;;;;;29.52;21.52;;;30.80;78.20;;;;;;1816394;77;21078;-88
2023/02/08 12:44:47;;;;;;;26.35;20.65;;;30.80;78.40;;;;;;1816110;77;21148;-89
2023/02/08 12:47:42;;;;;;;26.52;20.37;;;30.80;78.50;;;;;;1816821;79;21544;-87
2023/02/08 12:50:33;;;;;;;26.42;20.72;;;30.70;78.50;;;;;;1813775;78;21184;-87
2023/02/08 12:53:15;;;;;;;27.60;21.55;;;30.70;78.70;;;;;;1812596;79;21097;-86
2023/02/08 12:55:48;;;;;;;26.93;20.52;;;30.70;78.70;;;;;;1816036;79;21122;-88
2023/02/08 12:58:40;;;;;;;29.05;20.85;;;30.70;78.80;;;;;;1815827;79;21225;-86
2023/02/08 13:01:16;;;;;;;29.18;20.68;;;30.70;79.00;;;;;;1815559;77;21102;-87
2023/02/08 13:03:53;;;;;;;25.10;20.80;;;30.70;79.20;;;;;;1813609;77;21294;-88
2023/02/08 13:06:26;;;;;;;24.98;21.93;;;30.60;79.10;;;;;;1816739;79;21086;-87
2023/02/08 13:09:22;;;;;;;24.82;21.00;;;30.60;79.20;;;;;;1816239;77;21109;-88
2023/02/08 13:12:01;;;;;;;25.27;22.07;;;30.60;79.30;;;;;;1816123;79;21102;-88
2023/02/08 13:14:40;;;;;;;25.88;21.52;;;30.60;79.20;;;;;;1816633;79;21074;-88
2023/02/08 13:17:19;;;;;;;26.25;20.62;;;30.60;79.40;;;;;;1816358;79;21121;-87
2023/02/08 13:19:56;;;;;;;27.22;20.52;;;30.60;79.50;;;;;;1816524;79;21180;-86
2023/02/08 13:22:32;;;;;;;26.20;20.92;;;30.50;79.50;;;;;;1816196;79;21153;-88
2023/02/08 13:25:06;;;;;;;24.47;21.48;;;30.50;79.70;;;;;;1817039;79;21109;-88
2023/02/08 13:27:37;;;;;;;27.55;22.02;;;30.50;80.00;;;;;;1817399;79;21094;-88
2023/02/08 13:30:11;;;;;;;24.95;21.45;;;30.50;80.00;;;;;;1816516;78;21141;-87
2023/02/08 13:32:44;;;;;;;26.20;20.17;;;30.50;80.20;;;;;;1816232;78;21160;-87
2023/02/08 13:35:17;;;;;;;26.50;20.90;;;30.40;80.30;;;;;;1816895;79;21148;-88
2023/02/08 13:37:53;;;;;;;26.15;21.27;;;30.40;80.50;;;;;;1816885;78;21102;-87
2023/02/08 13:40:27;;;;;;;25.90;22.05;;;30.40;80.80;;;;;;1816649;77;21588;-88
2023/02/08 13:43:04;;;;;;;27.27;21.02;;;30.30;80.90;;;;;;1816851;79;21156;-87
2023/02/08 13:45:40;;;;;;;25.17;21.65;;;30.30;81.10;;;;;;1817267;78;21148;-87
2023/02/08 13:48:16;;;;;;;24.65;21.45;;;30.30;81.50;;;;;;1817066;79;21169;-87